Lord Nelson — GHJV — position and weather

sailwx.info

Track history (hours):
 
Tides and Currents Weather Stations Pressure Air Temp Water Temp Dewpoint Dewpoint Depression Visibility Wind Speed Wind Dir Waves Ship Positions

Lord Nelson (United Kingdom)

Ship's website: http://www.jst.org.uk/

Last reported at 2014-Sep-23 17:34 UTC. Time now 2014-Sep-23 18:28 UTC.
Position N 51°23' E 001°43'.

Length 54.7 m; beam 9 m; draft 4.1 m.

Type: Sailing vessel. MMSI: 232003690.

Date/timePositionNaut miles runAvg speedWind from/ knotsBaromVisibWave heightAir tempDewpointWater temp
2014-Sep-23 17:34N 51°23' E 001°43'5 5.0
2014-Sep-23 16:34N 51°28' E 001°45'4 3.9
2014-Sep-23 15:33N 51°25' E 001°49'3 2.8
2014-Sep-23 14:33N 51°24' E 001°44'4 3.7
2014-Sep-23 13:33N 51°23' E 001°38'4 3.7
2014-Sep-23 12:34N 51°22' E 001°33'6 6.0
2014-Sep-23 11:34N 51°27' E 001°26'6 6.0
2014-Sep-23 10:34N 51°29' E 001°17'6 5.7
2014-Sep-23 09:33N 51°29' E 001°08'6 6.1
2014-Sep-23 08:34N 51°29' E 000°58'6 5.8
2014-Sep-23 07:33N 51°29' E 000°49'4 4.3
2014-Sep-23 06:32N 51°30' E 000°42'0 0.0
2014-Sep-23 05:32N 51°30' E 000°42'0 0.0
2014-Sep-23 04:32N 51°30' E 000°42'0 0.0
2014-Sep-23 03:32N 51°30' E 000°42'0 0.0
2014-Sep-23 02:32N 51°30' E 000°42'0 0.0
2014-Sep-23 01:32N 51°30' E 000°42'0 0.0
2014-Sep-23 00:32N 51°30' E 000°42'0 0.0
2014-Sep-22 23:32N 51°30' E 000°42'0 0.0
2014-Sep-22 22:32N 51°30' E 000°42'0 0.0
2014-Sep-22 21:32N 51°30' E 000°42'0 0.0
2014-Sep-22 20:32N 51°30' E 000°42'0 0.0
2014-Sep-22 19:32N 51°30' E 000°42'0 0.0
2014-Sep-22 18:34N 51°30' E 000°42'7 7.2
2014-Sep-22 17:33N 51°30' E 000°30'6 6.2
2014-Sep-22 16:34N 51°27' E 000°22'0 0.0
2014-Sep-22 15:32N 51°27' E 000°22'4 4.4
2014-Sep-22 14:33N 51°28' E 000°15'8 7.8
2014-Sep-22 13:33N 51°30' E 000°03'  
2014-Sep-19 08:31N 51°30' W 000°00'7 7.1
2014-Sep-19 07:33N 51°30' E 000°11'7 7.3
2014-Sep-19 06:33N 51°27' E 000°21'6 5.5
2014-Sep-19 05:33N 51°30' E 000°29'6 6.5
2014-Sep-19 04:33N 51°30' E 000°39'0 0.1
2014-Sep-19 03:32N 51°30' E 000°39'0 0.0
2014-Sep-19 02:32N 51°30' E 000°39'0 0.0
2014-Sep-19 01:32N 51°30' E 000°39'0 0.0
2014-Sep-19 00:32N 51°30' E 000°39'0 0.0
2014-Sep-18 23:32N 51°30' E 000°39'0 0.0
2014-Sep-18 22:32N 51°30' E 000°39'0 0.0
2014-Sep-18 21:32N 51°30' E 000°39'0 0.1
2014-Sep-18 20:32N 51°30' E 000°39'0 0.0
2014-Sep-18 19:31N 51°30' E 000°39'0 0.0
2014-Sep-18 18:31N 51°30' E 000°39'0 0.0
2014-Sep-18 17:31N 51°30' E 000°39'0 0.0
2014-Sep-18 16:33N 51°30' E 000°39'7 6.8
2014-Sep-18 15:33N 51°30' E 000°50'8 7.8
2014-Sep-18 14:33N 51°30' E 001°03'8 7.6
2014-Sep-18 13:34N 51°29' E 001°15'7 7.0
2014-Sep-18 12:34N 51°28' E 001°26'6 6.4
2014-Sep-18 11:33N 51°24' E 001°34'7 6.7
2014-Sep-18 10:33N 51°17' E 001°37'7 7.3
2014-Sep-18 09:33N 51°10' E 001°35'6 6.5
2014-Sep-18 08:33N 51°04' E 001°36'8 7.9
2014-Sep-18 07:33N 50°58' E 001°27'7 7.4
2014-Sep-18 06:33N 50°51' E 001°22'8 7.4
2014-Sep-18 05:25N 50°43' E 001°19'7 7.5
2014-Sep-18 04:30N 50°37' E 001°14'8 7.6
2014-Sep-18 03:27N 50°32' E 001°04'6 7.2
2014-Sep-18 02:33N 50°28' E 000°56'7 6.8
2014-Sep-18 01:32N 50°24' E 000°47'6 6.1
2014-Sep-18 00:33N 50°21' E 000°39'5 5.3
2014-Sep-17 23:33N 50°19' E 000°31'4 4.4
2014-Sep-17 22:33N 50°17' E 000°25'68 3.3
2014-Sep-17 02:14N 50°27' W 001°19'4 4.9
2014-Sep-17 01:30N 50°27' W 001°25'5 4.9
2014-Sep-17 00:23N 50°26' W 001°34'6 5.2
2014-Sep-16 23:15N 50°24' W 001°43'9 5.1
2014-Sep-16 21:32N 50°22' W 001°56'9 4.1
2014-Sep-16 19:17N 50°21' W 002°10'3 3.9
2014-Sep-16 18:25N 50°19' W 002°15'2 5.7
2014-Sep-16 18:00N 50°18' W 002°12'79 7.2 090 / 181011.1 2.2 0.519.116.118.1
2014-Sep-16 07:00N 49°48' W 004°06'86 4.5 090 / 121011.8 1.1 0.516.514.815.5
2014-Sep-15 12:00N 49°12' W 006°06'40 4.4 090 / 221014.1 2.2 1.518.016.017.9
2014-Sep-15 03:00N 48°48' W 006°54'17 4.2 080 / 141013.9 2.2 17.515.818.3
2014-Sep-14 23:00N 48°42' W 007°18'47 4.3 090 / 181014.2 5.4 1.017.716.218.3
2014-Sep-14 12:00N 48°24' W 008°24'44 4.9 080 / 151016.2 1.1 0.518.416.617.3
2014-Sep-14 03:00N 48°30' W 009°30'17 4.2 080 / 141018.0 5.4 17.516.717.4
2014-Sep-13 23:00N 48°36' W 009°54'   100 / 161019.8 5.4 18.014.617.0
Track history (hours):
 
Tides and Currents Weather Stations Pressure Air Temp Water Temp Dewpoint Dewpoint Depression Visibility Wind Speed Wind Dir Waves Ship Positions

Lord Nelson (United Kingdom)

Ship's website: http://www.jst.org.uk/

Last reported at 2014-Sep-23 17:34 UTC. Time now 2014-Sep-23 18:28 UTC.
Position N 51°23' E 001°43'.

Length 54.7 m; beam 9 m; draft 4.1 m.

Type: Sailing vessel. MMSI: 232003690.

Date/timePositionNaut miles runAvg speedWind from/ knotsBaromVisibWave heightAir tempDewpointWater temp
2014-Sep-23 17:34N 51°23' E 001°43'5 5.0
2014-Sep-23 16:34N 51°28' E 001°45'4 3.9
2014-Sep-23 15:33N 51°25' E 001°49'3 2.8
2014-Sep-23 14:33N 51°24' E 001°44'4 3.7
2014-Sep-23 13:33N 51°23' E 001°38'4 3.7
2014-Sep-23 12:34N 51°22' E 001°33'6 6.0
2014-Sep-23 11:34N 51°27' E 001°26'6 6.0
2014-Sep-23 10:34N 51°29' E 001°17'6 5.7
2014-Sep-23 09:33N 51°29' E 001°08'6 6.1
2014-Sep-23 08:34N 51°29' E 000°58'6 5.8
2014-Sep-23 07:33N 51°29' E 000°49'4 4.3
2014-Sep-23 06:32N 51°30' E 000°42'0 0.0
2014-Sep-23 05:32N 51°30' E 000°42'0 0.0
2014-Sep-23 04:32N 51°30' E 000°42'0 0.0
2014-Sep-23 03:32N 51°30' E 000°42'0 0.0
2014-Sep-23 02:32N 51°30' E 000°42'0 0.0
2014-Sep-23 01:32N 51°30' E 000°42'0 0.0
2014-Sep-23 00:32N 51°30' E 000°42'0 0.0
2014-Sep-22 23:32N 51°30' E 000°42'0 0.0
2014-Sep-22 22:32N 51°30' E 000°42'0 0.0
2014-Sep-22 21:32N 51°30' E 000°42'0 0.0
2014-Sep-22 20:32N 51°30' E 000°42'0 0.0
2014-Sep-22 19:32N 51°30' E 000°42'0 0.0
2014-Sep-22 18:34N 51°30' E 000°42'7 7.2
2014-Sep-22 17:33N 51°30' E 000°30'6 6.2
2014-Sep-22 16:34N 51°27' E 000°22'0 0.0
2014-Sep-22 15:32N 51°27' E 000°22'4 4.4
2014-Sep-22 14:33N 51°28' E 000°15'8 7.8
2014-Sep-22 13:33N 51°30' E 000°03'  
2014-Sep-19 08:31N 51°30' W 000°00'7 7.1
2014-Sep-19 07:33N 51°30' E 000°11'7 7.3
2014-Sep-19 06:33N 51°27' E 000°21'6 5.5
2014-Sep-19 05:33N 51°30' E 000°29'6 6.5
2014-Sep-19 04:33N 51°30' E 000°39'0 0.1
2014-Sep-19 03:32N 51°30' E 000°39'0 0.0
2014-Sep-19 02:32N 51°30' E 000°39'0 0.0
2014-Sep-19 01:32N 51°30' E 000°39'0 0.0
2014-Sep-19 00:32N 51°30' E 000°39'0 0.0
2014-Sep-18 23:32N 51°30' E 000°39'0 0.0
2014-Sep-18 22:32N 51°30' E 000°39'0 0.0
2014-Sep-18 21:32N 51°30' E 000°39'0 0.1
2014-Sep-18 20:32N 51°30' E 000°39'0 0.0
2014-Sep-18 19:31N 51°30' E 000°39'0 0.0
2014-Sep-18 18:31N 51°30' E 000°39'0 0.0
2014-Sep-18 17:31N 51°30' E 000°39'0 0.0
2014-Sep-18 16:33N 51°30' E 000°39'7 6.8
2014-Sep-18 15:33N 51°30' E 000°50'8 7.8
2014-Sep-18 14:33N 51°30' E 001°03'8 7.6
2014-Sep-18 13:34N 51°29' E 001°15'7 7.0
2014-Sep-18 12:34N 51°28' E 001°26'6 6.4
2014-Sep-18 11:33N 51°24' E 001°34'7 6.7
2014-Sep-18 10:33N 51°17' E 001°37'7 7.3
2014-Sep-18 09:33N 51°10' E 001°35'6 6.5
2014-Sep-18 08:33N 51°04' E 001°36'8 7.9
2014-Sep-18 07:33N 50°58' E 001°27'7 7.4
2014-Sep-18 06:33N 50°51' E 001°22'8 7.4
2014-Sep-18 05:25N 50°43' E 001°19'7 7.5
2014-Sep-18 04:30N 50°37' E 001°14'8 7.6
2014-Sep-18 03:27N 50°32' E 001°04'6 7.2
2014-Sep-18 02:33N 50°28' E 000°56'7 6.8
2014-Sep-18 01:32N 50°24' E 000°47'6 6.1
2014-Sep-18 00:33N 50°21' E 000°39'5 5.3
2014-Sep-17 23:33N 50°19' E 000°31'4 4.4
2014-Sep-17 22:33N 50°17' E 000°25'68 3.3
2014-Sep-17 02:14N 50°27' W 001°19'4 4.9
2014-Sep-17 01:30N 50°27' W 001°25'5 4.9
2014-Sep-17 00:23N 50°26' W 001°34'6 5.2
2014-Sep-16 23:15N 50°24' W 001°43'9 5.1
2014-Sep-16 21:32N 50°22' W 001°56'9 4.1
2014-Sep-16 19:17N 50°21' W 002°10'3 3.9
2014-Sep-16 18:25N 50°19' W 002°15'2 5.7
2014-Sep-16 18:00N 50°18' W 002°12'79 7.2 090 / 181011.1 2.2 0.519.116.118.1
2014-Sep-16 07:00N 49°48' W 004°06'86 4.5 090 / 121011.8 1.1 0.516.514.815.5
2014-Sep-15 12:00N 49°12' W 006°06'40 4.4 090 / 221014.1 2.2 1.518.016.017.9
2014-Sep-15 03:00N 48°48' W 006°54'17 4.2 080 / 141013.9 2.2 17.515.818.3
2014-Sep-14 23:00N 48°42' W 007°18'47 4.3 090 / 181014.2 5.4 1.017.716.218.3
2014-Sep-14 12:00N 48°24' W 008°24'44 4.9 080 / 151016.2 1.1 0.518.416.617.3
2014-Sep-14 03:00N 48°30' W 009°30'17 4.2 080 / 141018.0 5.4 17.516.717.4
2014-Sep-13 23:00N 48°36' W 009°54'   100 / 161019.8 5.4 18.014.617.0

Dump ship's entire track history